Time;durP1;ratioP1;P1;durP2;ratioP2;P2;SDS_P1;SDS_P2;PMS_P1;PMS_P2;Temp;Humidity;BMP_temperature;BMP_pressure;BME280_temperature;BME280_humidity;BME280_pressure;Samples;Min_cycle;Max_cycle;Signal;HPM_P1;HPM_P2
2022/01/18 00:00:48;;;;;;;32.03;17.08;;;2.80;99.90;;;;;;4974813;28;20034;-74
2022/01/18 00:03:14;;;;;;;28.13;16.52;;;2.70;99.90;;;;;;4999027;28;20060;-75
2022/01/18 00:05:45;;;;;;;24.65;16.25;;;2.80;99.90;;;;;;4994380;28;20026;-75
2022/01/18 00:08:12;;;;;;;25.38;13.75;;;2.80;99.90;;;;;;4987257;28;20027;-75
2022/01/18 00:10:37;;;;;;;18.70;12.18;;;2.70;99.90;;;;;;4991941;28;20404;-75
2022/01/18 00:15:43;;;;;;;16.73;9.70;;;2.70;99.90;;;;;;4992958;28;20084;-73
2022/01/18 00:18:14;;;;;;;17.88;9.93;;;2.60;99.90;;;;;;5002774;28;20476;-75
2022/01/18 00:21:11;;;;;;;16.40;7.10;;;2.70;99.90;;;;;;4990803;28;20488;-74
2022/01/18 00:23:38;;;;;;;15.82;7.45;;;2.70;99.90;;;;;;4997543;28;20026;-73
2022/01/18 00:26:06;;;;;;;14.55;7.13;;;2.80;99.90;;;;;;4992240;28;20026;-74
2022/01/18 00:28:32;;;;;;;23.92;12.73;;;2.70;99.90;;;;;;4992045;28;20365;-74
2022/01/18 00:36:22;;;;;;;20.13;10.05;;;2.80;99.90;;;;;;5011769;28;20029;-75
2022/01/18 00:38:48;;;;;;;16.63;9.07;;;2.70;99.90;;;;;;4992148;28;20053;-74
2022/01/18 00:41:15;;;;;;;13.50;8.40;;;2.70;99.90;;;;;;4991989;28;20457;-75
2022/01/18 00:43:42;;;;;;;14.18;8.50;;;2.80;99.90;;;;;;4974546;28;20061;-75
2022/01/18 00:46:08;;;;;;;12.68;7.25;;;2.80;99.90;;;;;;4974504;28;20514;-76
2022/01/18 00:48:35;;;;;;;20.77;9.95;;;2.80;99.90;;;;;;4974461;28;20034;-76
2022/01/18 00:51:03;;;;;;;15.07;8.77;;;2.80;99.90;;;;;;4993080;28;20033;-76
2022/01/18 00:53:35;;;;;;;18.13;8.13;;;2.70;99.90;;;;;;4975202;28;20555;-77
2022/01/18 00:58:35;;;;;;;15.50;9.55;;;2.70;99.90;;;;;;5000032;28;20568;-75
2022/01/18 01:01:01;;;;;;;18.90;9.68;;;2.70;99.90;;;;;;5009745;28;20109;-74
2022/01/18 01:03:26;;;;;;;20.77;9.77;;;2.70;99.90;;;;;;4974450;28;20480;-74
2022/01/18 01:05:52;;;;;;;17.08;9.55;;;2.60;99.90;;;;;;4991815;28;20054;-74
2022/01/18 01:08:17;;;;;;;22.00;10.00;;;2.50;99.90;;;;;;4993016;28;20027;-75
2022/01/18 01:10:43;;;;;;;21.42;10.20;;;2.40;99.90;;;;;;4977758;28;20026;-74
2022/01/18 01:13:11;;;;;;;19.65;9.57;;;2.50;99.90;;;;;;4996019;28;20027;-75
2022/01/18 01:15:54;;;;;;;24.67;12.85;;;2.50;99.90;;;;;;4977887;28;20118;-75
2022/01/18 01:18:46;;;;;;;18.13;9.80;;;2.50;99.90;;;;;;4978038;28;20035;-73
2022/01/18 01:43:21;;;;;;;17.75;10.48;;;2.30;99.90;;;;;;4995633;28;20085;-75
2022/01/18 01:45:48;;;;;;;21.25;10.90;;;2.30;99.90;;;;;;4977517;28;20027;-74
2022/01/18 01:48:14;;;;;;;23.92;10.43;;;2.30;99.90;;;;;;4980967;28;20025;-75
2022/01/18 01:50:53;;;;;;;13.18;8.65;;;2.40;99.90;;;;;;5014140;28;20483;-74
2022/01/18 01:53:21;;;;;;;15.25;7.93;;;2.40;99.90;;;;;;4995905;28;20030;-73
2022/01/18 01:55:48;;;;;;;17.65;8.57;;;2.40;99.90;;;;;;4994726;28;20030;-75
2022/01/18 01:58:14;;;;;;;14.65;7.07;;;2.40;99.90;;;;;;4994564;28;20034;-76
2022/01/18 02:00:44;;;;;;;17.10;7.03;;;2.40;99.90;;;;;;4976889;28;20053;-76
2022/01/18 02:03:09;;;;;;;11.85;5.82;;;2.40;99.90;;;;;;4994697;28;20404;-75
2022/01/18 02:05:35;;;;;;;18.52;7.07;;;2.40;99.90;;;;;;4977063;28;20026;-75
2022/01/18 02:08:01;;;;;;;17.70;6.90;;;2.40;99.90;;;;;;4995724;28;20026;-74
2022/01/18 02:10:26;;;;;;;19.05;6.72;;;2.30;99.90;;;;;;4983908;28;20530;-75
2022/01/18 02:12:52;;;;;;;19.50;6.28;;;2.40;99.90;;;;;;4976907;28;20484;-75
2022/01/18 02:15:19;;;;;;;17.85;6.00;;;2.40;99.90;;;;;;4994337;28;20400;-74
2022/01/18 02:23:21;;;;;;;20.73;6.50;;;2.40;99.90;;;;;;4994244;28;20392;-74
2022/01/18 02:25:46;;;;;;;21.95;6.18;;;2.40;99.90;;;;;;4994049;28;20026;-73
2022/01/18 02:28:13;;;;;;;22.58;5.57;;;2.60;99.90;;;;;;5010870;28;20092;-73
2022/01/18 02:30:39;;;;;;;21.15;5.97;;;2.50;99.90;;;;;;5008153;28;20059;-73
2022/01/18 02:33:05;;;;;;;16.30;5.10;;;2.40;99.90;;;;;;5010923;28;20113;-73
2022/01/18 02:35:35;;;;;;;17.27;5.22;;;2.50;99.90;;;;;;5011298;28;20018;-73
2022/01/18 02:38:01;;;;;;;21.77;5.18;;;2.40;99.90;;;;;;5009138;28;20076;-73
2022/01/18 02:40:27;;;;;;;40.45;22.75;;;2.50;99.90;;;;;;4999052;28;20119;-73
2022/01/18 02:43:46;;;;;;;18.13;7.00;;;2.50;99.90;;;;;;5008838;28;20464;-73
2022/01/18 02:45:46;;;;;;;13.80;5.38;;;2.40;99.90;;;;;;4993556;28;20029;-73
2022/01/18 02:48:11;;;;;;;21.58;6.50;;;2.30;99.90;;;;;;5010240;28;20468;-73
2022/01/18 02:50:37;;;;;;;18.33;6.80;;;2.30;99.90;;;;;;5003435;28;20030;-72
2022/01/18 02:53:02;;;;;;;19.23;7.65;;;2.40;99.90;;;;;;5006706;28;20022;-75
2022/01/18 02:55:28;;;;;;;19.50;8.55;;;2.40;99.90;;;;;;4998984;28;20029;-74
2022/01/18 02:58:01;;;;;;;19.83;9.48;;;2.40;99.90;;;;;;5006247;28;20060;-74
2022/01/18 03:00:43;;;;;;;18.63;8.50;;;2.30;99.90;;;;;;4997384;28;20026;-74
2022/01/18 03:03:16;;;;;;;25.77;10.27;;;2.40;99.90;;;;;;4993595;28;20097;-74
2022/01/18 03:05:43;;;;;;;19.50;8.15;;;2.40;99.90;;;;;;4975856;28;20077;-74
2022/01/18 03:08:10;;;;;;;17.25;6.97;;;2.50;99.90;;;;;;4993268;28;20033;-74
2022/01/18 03:10:37;;;;;;;22.33;8.00;;;2.40;99.90;;;;;;4993049;28;20540;-74
2022/01/18 03:13:04;;;;;;;26.17;9.25;;;2.40;99.90;;;;;;4975873;28;20034;-74
2022/01/18 03:15:30;;;;;;;22.60;9.35;;;2.30;99.90;;;;;;4993186;28;20034;-74
2022/01/18 03:17:56;;;;;;;23.05;10.52;;;2.00;99.90;;;;;;4975556;28;20037;-74
2022/01/18 03:20:23;;;;;;;25.25;10.40;;;2.00;99.90;;;;;;4992644;28;20026;-74
2022/01/18 03:22:50;;;;;;;23.02;8.68;;;1.80;99.90;;;;;;4993064;28;20033;-74
2022/01/18 03:28:05;;;;;;;17.95;7.63;;;1.90;99.90;;;;;;5009508;28;20372;-74
2022/01/18 03:30:37;;;;;;;18.73;8.98;;;2.00;99.90;;;;;;5007084;28;20102;-74
2022/01/18 03:33:06;;;;;;;22.50;10.25;;;2.10;99.90;;;;;;5009940;28;20061;-74
2022/01/18 03:35:32;;;;;;;21.38;9.25;;;2.10;99.90;;;;;;5010105;28;20028;-73
2022/01/18 03:37:58;;;;;;;17.65;7.55;;;2.00;99.90;;;;;;5012539;28;20472;-72
2022/01/18 03:40:23;;;;;;;30.90;14.45;;;2.20;99.90;;;;;;4999105;28;20443;-72
2022/01/18 03:42:49;;;;;;;29.13;10.95;;;2.00;99.90;;;;;;4975699;28;20427;-72
2022/01/18 03:45:19;;;;;;;22.15;11.00;;;2.10;99.90;;;;;;4992561;28;20026;-72
2022/01/18 03:47:45;;;;;;;17.13;8.10;;;2.00;99.90;;;;;;4992604;28;20026;-74
2022/01/18 03:50:14;;;;;;;22.02;9.75;;;2.10;99.90;;;;;;4975429;28;20425;-74
2022/01/18 03:52:42;;;;;;;17.92;7.80;;;2.20;99.90;;;;;;4975064;28;20045;-73
2022/01/18 03:55:10;;;;;;;23.20;12.13;;;2.20;99.90;;;;;;4992570;28;20036;-73
2022/01/18 03:57:36;;;;;;;22.63;11.80;;;2.20;99.90;;;;;;4992245;28;20026;-73
2022/01/18 04:00:09;;;;;;;30.35;14.70;;;2.30;99.90;;;;;;4992360;28;20037;-73
2022/01/18 04:02:35;;;;;;;31.58;14.63;;;2.30;99.90;;;;;;5006150;28;20120;-74
2022/01/18 04:05:01;;;;;;;32.47;14.65;;;2.20;99.90;;;;;;5004860;28;20099;-74
2022/01/18 04:07:26;;;;;;;26.27;12.07;;;2.10;99.90;;;;;;4997092;28;20046;-74
2022/01/18 04:09:52;;;;;;;26.40;11.88;;;2.10;99.90;;;;;;4974892;28;20069;-74
2022/01/18 04:12:17;;;;;;;29.20;13.77;;;2.20;99.90;;;;;;4994644;28;20029;-73
2022/01/18 04:14:44;;;;;;;33.13;12.43;;;2.20;99.90;;;;;;4996798;28;20022;-73
2022/01/18 04:27:46;;;;;;;29.95;14.02;;;1.80;99.90;;;;;;4992353;28;20054;-73
2022/01/18 04:30:11;;;;;;;32.33;14.00;;;1.90;99.90;;;;;;4974542;28;20035;-73
2022/01/18 04:32:37;;;;;;;20.75;10.82;;;1.90;99.90;;;;;;4999650;28;20022;-73
2022/01/18 04:35:03;;;;;;;22.02;11.40;;;2.10;99.90;;;;;;5010068;28;20161;-74
2022/01/18 04:37:29;;;;;;;20.95;10.82;;;2.10;99.90;;;;;;4985305;28;20034;-74
2022/01/18 04:39:54;;;;;;;24.77;11.55;;;2.10;99.90;;;;;;4991868;28;20038;-73
2022/01/18 04:42:39;;;;;;;22.63;12.15;;;2.20;99.90;;;;;;4993956;28;20026;-73
2022/01/18 04:50:33;;;;;;;24.15;9.82;;;2.30;99.90;;;;;;4996020;28;20496;-73
2022/01/18 04:52:59;;;;;;;20.15;9.30;;;2.30;99.90;;;;;;4978354;28;20030;-73
2022/01/18 04:55:30;;;;;;;20.42;10.68;;;2.20;99.90;;;;;;4995842;28;20495;-74
2022/01/18 04:57:56;;;;;;;23.30;9.98;;;2.30;99.90;;;;;;4995564;28;20113;-75
2022/01/18 05:00:23;;;;;;;16.85;8.20;;;2.30;99.90;;;;;;4998289;28;20220;-74
2022/01/18 05:02:49;;;;;;;19.42;8.68;;;2.30;99.90;;;;;;5012122;28;20023;-74
2022/01/18 05:05:27;;;;;;;28.45;9.10;;;2.30;99.90;;;;;;5009045;28;20014;-73
2022/01/18 05:07:57;;;;;;;26.63;9.95;;;2.20;99.90;;;;;;5006185;28;20030;-73
2022/01/18 05:10:26;;;;;;;26.35;10.93;;;2.20;99.90;;;;;;4995402;28;20018;-73
2022/01/18 05:12:54;;;;;;;26.23;11.38;;;2.00;99.90;;;;;;4978080;28;20056;-76
2022/01/18 05:23:07;;;;;;;35.50;14.80;;;1.90;99.90;;;;;;5006762;28;20500;-74
2022/01/18 05:25:33;;;;;;;27.55;11.60;;;1.90;99.90;;;;;;4999144;28;20080;-77
2022/01/18 05:28:01;;;;;;;24.60;9.77;;;1.70;99.90;;;;;;4995134;28;20030;-77
2022/01/18 05:30:28;;;;;;;24.50;11.57;;;1.90;99.90;;;;;;4977553;28;20060;-74
2022/01/18 05:32:54;;;;;;;25.02;10.95;;;2.00;99.90;;;;;;4977732;28;20057;-74
2022/01/18 05:35:20;;;;;;;28.90;12.77;;;2.00;99.90;;;;;;5010523;28;20463;-74
2022/01/18 05:37:47;;;;;;;28.73;12.15;;;2.10;99.90;;;;;;5003298;28;20137;-73
2022/01/18 05:40:13;;;;;;;24.05;11.32;;;2.00;99.90;;;;;;4994929;28;20503;-73
2022/01/18 05:42:38;;;;;;;28.77;12.25;;;2.10;99.90;;;;;;4995290;28;20031;-73
2022/01/18 05:45:06;;;;;;;29.17;12.63;;;2.10;99.90;;;;;;4994777;28;20026;-74
2022/01/18 05:47:32;;;;;;;21.02;8.93;;;2.10;99.90;;;;;;4977533;28;20114;-75
2022/01/18 05:49:58;;;;;;;24.15;11.60;;;2.10;99.90;;;;;;4986608;28;20583;-75
2022/01/18 05:52:24;;;;;;;26.45;11.30;;;2.10;99.90;;;;;;4996776;28;20121;-74
2022/01/18 05:54:49;;;;;;;31.83;12.95;;;2.20;99.90;;;;;;4996501;28;20443;-76
2022/01/18 05:57:15;;;;;;;32.60;15.55;;;2.30;99.90;;;;;;5014910;28;20033;-77
2022/01/18 05:59:44;;;;;;;24.38;13.70;;;2.20;99.90;;;;;;4984706;28;20026;-76
2022/01/18 06:02:18;;;;;;;28.85;15.68;;;2.20;99.90;;;;;;4990604;28;20025;-77
2022/01/18 06:07:29;;;;;;;26.13;13.63;;;2.20;99.90;;;;;;5001662;28;20080;-76
2022/01/18 06:09:56;;;;;;;24.00;12.77;;;2.30;99.90;;;;;;5006228;28;20026;-74
2022/01/18 06:12:23;;;;;;;25.55;12.30;;;2.30;99.90;;;;;;4996387;28;20030;-74
2022/01/18 06:14:49;;;;;;;31.27;13.52;;;2.30;99.90;;;;;;5005896;28;20062;-74
2022/01/18 06:17:15;;;;;;;25.95;12.50;;;2.20;99.90;;;;;;5008780;28;20077;-75
2022/01/18 06:19:40;;;;;;;31.92;14.70;;;2.30;99.90;;;;;;4985585;28;20029;-76
2022/01/18 06:22:06;;;;;;;41.88;19.60;;;2.30;99.90;;;;;;5011668;28;20030;-75
2022/01/18 06:24:31;;;;;;;35.38;17.35;;;2.30;99.90;;;;;;5002995;28;20056;-75
2022/01/18 06:26:57;;;;;;;35.17;13.85;;;2.20;99.90;;;;;;5000703;28;20114;-76
2022/01/18 06:29:22;;;;;;;29.48;12.50;;;2.10;99.90;;;;;;5005401;28;20022;-75
2022/01/18 06:31:48;;;;;;;25.88;10.77;;;2.20;99.90;;;;;;4993845;28;20038;-75
2022/01/18 06:34:14;;;;;;;29.08;11.57;;;2.20;99.90;;;;;;4983239;28;20057;-74
2022/01/18 06:36:41;;;;;;;22.55;9.70;;;2.20;99.90;;;;;;5011590;28;20132;-76
2022/01/18 06:39:07;;;;;;;31.15;12.95;;;2.40;99.90;;;;;;5002487;28;20041;-74
2022/01/18 06:41:32;;;;;;;24.52;10.80;;;2.10;99.90;;;;;;5013197;28;20022;-74
2022/01/18 06:43:59;;;;;;;25.17;10.30;;;2.20;99.90;;;;;;4987189;28;20531;-75
2022/01/18 06:46:24;;;;;;;32.42;14.27;;;2.30;99.90;;;;;;4993780;28;20123;-74
2022/01/18 06:48:50;;;;;;;22.02;11.63;;;2.30;99.90;;;;;;5002660;28;20617;-74
2022/01/18 06:51:15;;;;;;;26.83;13.05;;;2.40;99.90;;;;;;5010635;28;20030;-74
2022/01/18 06:53:48;;;;;;;22.08;12.20;;;2.50;99.90;;;;;;5002821;28;20026;-76
2022/01/18 06:56:16;;;;;;;26.00;10.38;;;2.40;99.90;;;;;;5000299;28;20053;-74
2022/01/18 06:58:43;;;;;;;27.23;11.05;;;2.30;99.90;;;;;;5002955;28;20029;-74
2022/01/18 07:01:10;;;;;;;22.63;10.73;;;2.40;99.90;;;;;;5010150;28;20026;-74
2022/01/18 07:03:36;;;;;;;43.28;17.02;;;2.30;99.90;;;;;;5008797;28;20022;-74
2022/01/18 07:06:02;;;;;;;46.47;25.50;;;2.30;99.90;;;;;;5000016;28;20025;-74
2022/01/18 07:08:27;;;;;;;33.90;22.10;;;2.10;99.90;;;;;;4995419;28;20376;-74
2022/01/18 07:10:53;;;;;;;45.58;23.92;;;2.10;99.90;;;;;;4982133;28;20061;-73
2022/01/18 07:13:19;;;;;;;41.58;23.92;;;2.10;99.90;;;;;;4985125;28;20106;-74
2022/01/18 07:15:44;;;;;;;45.17;25.38;;;2.10;99.90;;;;;;5006389;28;20112;-74
2022/01/18 07:18:10;;;;;;;36.20;18.75;;;2.10;99.90;;;;;;5003225;28;20095;-74
2022/01/18 07:20:37;;;;;;;34.03;18.75;;;2.10;99.90;;;;;;4999988;28;20032;-74
2022/01/18 07:23:07;;;;;;;37.13;18.30;;;2.10;99.90;;;;;;5012083;28;20104;-74
2022/01/18 07:25:33;;;;;;;37.05;17.65;;;2.10;99.90;;;;;;5012624;28;20022;-74
2022/01/18 07:27:58;;;;;;;42.08;21.75;;;2.10;99.90;;;;;;5012399;28;20018;-74
2022/01/18 07:30:24;;;;;;;39.92;22.38;;;2.20;99.90;;;;;;4995033;28;20443;-74
2022/01/18 07:32:50;;;;;;;40.38;20.77;;;2.20;99.90;;;;;;5003429;28;20093;-76
2022/01/18 07:35:16;;;;;;;47.13;25.40;;;2.20;99.90;;;;;;5026031;28;20030;-74
2022/01/18 07:37:41;;;;;;;29.35;17.40;;;2.10;99.90;;;;;;5006205;28;20034;-75
2022/01/18 07:40:08;;;;;;;38.25;18.13;;;2.10;99.90;;;;;;5022292;28;20061;-74
2022/01/18 07:42:33;;;;;;;36.58;16.88;;;2.20;99.90;;;;;;5023783;28;20017;-74
2022/01/18 07:44:59;;;;;;;40.92;18.90;;;2.10;99.90;;;;;;4995647;28;20037;-74
2022/01/18 07:47:24;;;;;;;32.40;16.08;;;2.10;99.90;;;;;;5006189;28;20481;-75
2022/01/18 07:49:50;;;;;;;45.13;27.65;;;2.40;99.90;;;;;;5005158;28;20026;-74
2022/01/18 07:52:17;;;;;;;40.45;22.33;;;2.20;99.90;;;;;;5008956;28;20025;-74
2022/01/18 07:54:43;;;;;;;40.83;24.02;;;2.10;99.90;;;;;;5020433;28;20097;-74
2022/01/18 07:57:08;;;;;;;29.50;18.52;;;2.20;99.90;;;;;;5028221;28;20097;-74
2022/01/18 07:59:34;;;;;;;31.42;18.50;;;2.30;99.90;;;;;;5007217;28;20030;-74
2022/01/18 08:01:59;;;;;;;33.33;19.85;;;2.50;99.90;;;;;;5001887;28;20032;-74
2022/01/18 08:04:25;;;;;;;31.50;17.52;;;2.50;99.90;;;;;;4998585;28;20097;-74
2022/01/18 08:06:51;;;;;;;30.33;18.00;;;2.40;99.90;;;;;;5001315;28;20105;-74
2022/01/18 08:09:19;;;;;;;44.88;21.40;;;2.50;99.90;;;;;;5008886;28;20030;-74
2022/01/18 08:11:46;;;;;;;36.17;20.73;;;2.40;99.90;;;;;;5001128;28;20041;-74
2022/01/18 08:14:13;;;;;;;32.65;18.45;;;2.60;99.90;;;;;;5005120;28;20030;-74
2022/01/18 08:16:48;;;;;;;42.92;24.40;;;2.50;99.90;;;;;;4985187;28;20052;-74
2022/01/18 08:19:15;;;;;;;34.90;19.60;;;2.70;99.90;;;;;;4987899;28;20363;-74
2022/01/18 08:21:41;;;;;;;40.35;21.95;;;2.60;99.90;;;;;;5004554;28;20066;-74
2022/01/18 08:24:07;;;;;;;34.95;17.70;;;2.60;99.90;;;;;;4998285;28;20057;-75
2022/01/18 08:26:33;;;;;;;29.88;15.15;;;2.70;99.90;;;;;;5011564;28;20037;-74
2022/01/18 08:28:58;;;;;;;38.60;17.80;;;2.80;99.90;;;;;;4998042;28;20072;-74
2022/01/18 08:31:24;;;;;;;31.02;16.48;;;2.90;99.90;;;;;;4999250;28;20093;-74
2022/01/18 08:33:49;;;;;;;37.30;19.95;;;3.00;99.90;;;;;;5010790;28;20059;-75
2022/01/18 08:36:15;;;;;;;39.63;17.55;;;2.90;99.90;;;;;;4999758;28;20075;-74
2022/01/18 08:38:40;;;;;;;31.85;15.15;;;2.90;99.90;;;;;;4992609;28;20032;-74
2022/01/18 08:41:06;;;;;;;22.98;13.52;;;2.90;99.90;;;;;;4999907;28;20412;-73
2022/01/18 08:43:35;;;;;;;26.63;13.73;;;3.10;99.90;;;;;;4979436;28;20077;-74
2022/01/18 08:46:03;;;;;;;28.25;13.45;;;3.10;99.90;;;;;;5010923;28;20033;-75
2022/01/18 08:48:29;;;;;;;27.80;15.30;;;3.10;99.90;;;;;;5002042;28;20390;-75
2022/01/18 08:50:54;;;;;;;25.33;13.05;;;3.00;99.90;;;;;;5011322;28;20030;-75
2022/01/18 08:53:20;;;;;;;29.33;16.45;;;3.10;99.90;;;;;;5005236;28;20486;-75
2022/01/18 08:55:45;;;;;;;27.60;14.85;;;3.10;99.90;;;;;;4992996;28;20018;-75
2022/01/18 08:58:11;;;;;;;30.92;13.82;;;3.20;99.90;;;;;;5005679;28;20152;-74
2022/01/18 09:00:37;;;;;;;28.30;14.63;;;3.30;99.90;;;;;;5003300;28;20037;-75
2022/01/18 09:03:04;;;;;;;29.42;13.18;;;3.20;99.90;;;;;;4980803;28;20467;-75
2022/01/18 09:05:30;;;;;;;28.25;14.68;;;3.10;99.90;;;;;;4994562;28;20018;-74
2022/01/18 09:08:01;;;;;;;27.95;13.77;;;3.20;99.90;;;;;;5005693;28;20468;-74
2022/01/18 09:10:26;;;;;;;28.92;13.25;;;3.10;99.90;;;;;;5011100;28;20025;-74
2022/01/18 09:12:52;;;;;;;30.60;13.35;;;3.10;99.90;;;;;;4992377;28;20423;-75
2022/01/18 09:15:18;;;;;;;28.90;14.73;;;3.10;99.90;;;;;;4985839;28;20033;-75
2022/01/18 09:17:44;;;;;;;37.10;19.27;;;3.20;99.90;;;;;;4998320;28;20026;-75
2022/01/18 09:20:12;;;;;;;43.25;23.70;;;3.40;99.90;;;;;;5011142;28;20080;-75
2022/01/18 09:22:40;;;;;;;45.35;23.30;;;3.50;99.90;;;;;;4981012;28;20088;-74
2022/01/18 09:25:11;;;;;;;31.63;14.82;;;3.50;99.90;;;;;;4998141;28;20105;-74
2022/01/18 09:27:37;;;;;;;32.47;13.63;;;3.50;99.90;;;;;;5003727;28;20045;-75
2022/01/18 09:30:04;;;;;;;26.92;11.80;;;3.50;99.90;;;;;;5007162;28;20476;-75
2022/01/18 09:32:30;;;;;;;25.55;11.45;;;3.50;99.90;;;;;;5002747;28;20041;-75
2022/01/18 09:34:55;;;;;;;22.63;11.30;;;3.50;99.90;;;;;;4995592;28;20036;-75
2022/01/18 09:37:21;;;;;;;28.35;11.82;;;3.50;99.90;;;;;;4996949;28;20026;-75
2022/01/18 09:39:47;;;;;;;22.08;11.00;;;3.40;99.90;;;;;;5001107;28;20034;-74
2022/01/18 09:42:13;;;;;;;24.13;11.48;;;3.50;99.90;;;;;;5006971;28;20109;-74
2022/01/18 09:44:39;;;;;;;31.00;11.68;;;3.50;99.90;;;;;;5008088;28;20018;-74
2022/01/18 09:47:06;;;;;;;21.50;11.02;;;3.50;99.90;;;;;;5002128;28;20369;-74
2022/01/18 09:49:35;;;;;;;27.10;12.85;;;3.60;99.90;;;;;;5013071;28;20138;-74
2022/01/18 09:52:00;;;;;;;26.02;11.98;;;3.80;99.90;;;;;;5003233;28;20185;-74
2022/01/18 09:54:26;;;;;;;21.80;12.27;;;3.60;99.90;;;;;;5001259;28;20113;-74
2022/01/18 09:56:52;;;;;;;23.55;11.40;;;3.50;99.90;;;;;;5005715;28;20030;-74
2022/01/18 09:59:17;;;;;;;28.05;12.35;;;3.50;99.90;;;;;;5015465;28;20083;-74
2022/01/18 10:01:43;;;;;;;21.60;9.48;;;3.50;99.90;;;;;;5007506;28;20075;-74
2022/01/18 10:04:26;;;;;;;19.90;8.15;;;3.30;99.90;;;;;;5011409;28;20025;-74
2022/01/18 10:06:56;;;;;;;20.60;9.70;;;3.50;99.90;;;;;;5014052;28;20018;-74
2022/01/18 10:09:22;;;;;;;19.42;10.00;;;3.40;99.90;;;;;;5019022;28;20436;-74
2022/01/18 10:12:11;;;;;;;22.75;11.55;;;3.60;99.90;;;;;;5024682;28;20095;-74
2022/01/18 10:14:43;;;;;;;29.83;12.30;;;3.60;99.90;;;;;;5009317;28;20407;-74
2022/01/18 10:17:11;;;;;;;30.50;11.77;;;3.70;99.90;;;;;;5015234;28;20101;-74
2022/01/18 10:19:42;;;;;;;28.83;13.38;;;3.70;99.90;;;;;;5021700;28;20109;-74
2022/01/18 10:22:14;;;;;;;24.58;12.63;;;3.80;99.90;;;;;;4992692;28;20029;-74
2022/01/18 10:24:41;;;;;;;23.45;11.50;;;3.80;99.90;;;;;;5013872;28;20022;-76
2022/01/18 10:27:06;;;;;;;26.98;12.35;;;3.80;99.90;;;;;;5024103;28;20022;-75
2022/01/18 10:29:39;;;;;;;24.15;10.70;;;3.90;99.90;;;;;;5028752;28;20116;-76
2022/01/18 10:32:11;;;;;;;20.95;10.48;;;3.90;99.90;;;;;;5004988;28;20025;-75
2022/01/18 10:37:11;;;;;;;28.55;12.30;;;3.90;99.90;;;;;;5013611;28;20026;-75
2022/01/18 10:39:42;;;;;;;22.40;12.95;;;4.00;99.90;;;;;;5019807;28;20030;-75
2022/01/18 10:42:42;;;;;;;22.60;11.00;;;4.00;99.90;;;;;;5012249;28;20434;-76
2022/01/18 10:45:15;;;;;;;25.05;11.15;;;3.90;99.90;;;;;;4981256;28;20093;-75
2022/01/18 10:48:12;;;;;;;19.33;10.13;;;3.90;99.90;;;;;;5025748;28;20017;-75
2022/01/18 10:50:40;;;;;;;22.85;10.93;;;4.00;99.90;;;;;;5008137;28;20080;-75
2022/01/18 10:53:25;;;;;;;23.50;10.85;;;4.10;99.90;;;;;;5013342;28;20026;-75
2022/01/18 10:56:12;;;;;;;21.08;11.00;;;3.90;99.90;;;;;;5013080;28;20124;-76
2022/01/18 10:58:52;;;;;;;22.63;11.60;;;4.10;99.90;;;;;;5003346;28;20017;-75
2022/01/18 11:01:19;;;;;;;25.38;14.20;;;4.20;99.90;;;;;;5002728;28;20022;-76
2022/01/18 11:04:04;;;;;;;19.75;10.80;;;4.30;99.90;;;;;;5012988;28;20675;-75
2022/01/18 11:06:30;;;;;;;20.13;10.38;;;4.20;99.90;;;;;;4991367;28;20387;-75
2022/01/18 11:09:05;;;;;;;19.75;9.90;;;4.10;99.90;;;;;;5026564;28;20097;-76
2022/01/18 11:11:31;;;;;;;18.17;10.18;;;4.30;99.90;;;;;;5024033;28;20026;-76
2022/01/18 11:14:01;;;;;;;18.27;10.88;;;4.40;99.90;;;;;;5012232;28;20118;-74
2022/01/18 11:16:27;;;;;;;18.55;9.90;;;4.50;99.90;;;;;;5009730;28;20022;-75
2022/01/18 11:18:54;;;;;;;26.40;12.73;;;4.60;99.90;;;;;;5006330;28;20396;-75
2022/01/18 11:21:23;;;;;;;14.93;9.48;;;4.80;99.90;;;;;;5012021;28;20503;-74
2022/01/18 11:23:51;;;;;;;16.83;10.43;;;4.70;99.90;;;;;;5012323;28;20384;-75
2022/01/18 11:26:18;;;;;;;17.52;8.82;;;5.00;99.90;;;;;;4998674;28;20033;-75
2022/01/18 11:28:43;;;;;;;16.02;8.63;;;4.90;99.90;;;;;;5006831;28;20089;-75
2022/01/18 11:31:11;;;;;;;13.43;7.55;;;4.90;99.90;;;;;;5012181;28;20033;-75
2022/01/18 11:33:40;;;;;;;15.90;9.25;;;4.80;99.90;;;;;;5000355;28;20033;-75
2022/01/18 11:36:12;;;;;;;17.25;10.63;;;4.90;99.90;;;;;;5012116;28;20542;-74
2022/01/18 11:38:48;;;;;;;12.57;8.13;;;5.00;99.90;;;;;;5012068;28;20038;-75
2022/01/18 11:41:26;;;;;;;15.63;8.02;;;5.00;99.90;;;;;;5011743;28;20371;-75
2022/01/18 11:43:52;;;;;;;12.70;6.28;;;5.00;99.90;;;;;;5007537;28;20021;-75
2022/01/18 11:46:37;;;;;;;13.85;7.20;;;5.00;99.90;;;;;;5003012;28;20022;-75
2022/01/18 11:49:06;;;;;;;12.35;7.20;;;4.80;99.90;;;;;;5011741;28;20029;-75
2022/01/18 11:51:59;;;;;;;13.40;6.32;;;4.90;99.90;;;;;;5010370;28;20018;-75
2022/01/18 11:57:04;;;;;;;12.27;6.88;;;5.20;99.90;;;;;;5011796;28;20372;-74
2022/01/18 11:59:39;;;;;;;12.95;7.35;;;5.10;99.90;;;;;;5005959;28;20041;-74
2022/01/18 12:02:05;;;;;;;11.45;6.47;;;5.10;99.90;;;;;;5006453;28;20034;-74
2022/01/18 12:07:10;;;;;;;13.65;7.22;;;5.30;99.90;;;;;;5005267;28;20030;-75
2022/01/18 12:09:43;;;;;;;11.85;6.80;;;5.50;99.90;;;;;;5013782;28;20028;-75
2022/01/18 12:12:40;;;;;;;11.52;6.55;;;5.50;99.90;;;;;;5006143;28;20033;-75
2022/01/18 12:15:32;;;;;;;9.85;4.40;;;5.50;99.90;;;;;;5002033;28;20076;-75
2022/01/18 12:18:04;;;;;;;8.15;4.85;;;5.40;99.90;;;;;;4990049;28;20492;-75
2022/01/18 12:20:54;;;;;;;9.55;4.43;;;5.50;99.90;;;;;;5012948;28;20067;-75
2022/01/18 12:23:21;;;;;;;9.18;4.05;;;5.60;99.90;;;;;;5008741;28;20484;-74
2022/01/18 12:26:02;;;;;;;7.22;3.80;;;5.60;99.90;;;;;;5007206;28;20486;-75
2022/01/18 12:34:31;;;;;;;10.05;3.80;;;5.60;99.90;;;;;;5010715;28;20503;-75
2022/01/18 12:37:17;;;;;;;6.10;3.65;;;5.40;99.90;;;;;;4993684;28;20099;-75
2022/01/18 12:39:49;;;;;;;;;;;5.00;99.90;;;;;;4979883;28;20523;-76
2022/01/18 12:44:20;;;;;;;9.38;3.60;;;4.90;99.90;;;;;;5001012;28;19956;-75
2022/01/18 12:45:19;;;;;;;7.05;3.45;;;4.90;99.90;;;;;;5011188;28;20089;-75
2022/01/18 12:47:59;;;;;;;6.57;3.50;;;4.90;99.90;;;;;;5016914;28;20026;-75
2022/01/18 12:50:31;;;;;;;5.95;3.33;;;5.10;99.90;;;;;;4995604;28;20428;-74
2022/01/18 12:53:04;;;;;;;5.15;2.92;;;5.20;99.90;;;;;;5011278;28;20022;-75
2022/01/18 12:55:46;;;;;;;7.90;2.72;;;5.30;99.90;;;;;;4999876;28;20021;-75
2022/01/18 12:58:13;;;;;;;4.07;2.58;;;5.30;99.90;;;;;;5017722;28;20524;-75
2022/01/18 13:00:54;;;;;;;4.88;2.83;;;5.00;99.90;;;;;;5006749;28;20026;-75
2022/01/18 13:03:25;;;;;;;5.22;2.80;;;4.90;99.90;;;;;;5011393;28;20022;-75
2022/01/18 13:05:54;;;;;;;6.30;2.60;;;4.90;99.90;;;;;;5005883;28;20045;-76
2022/01/18 13:08:22;;;;;;;8.07;3.45;;;4.90;99.90;;;;;;4998047;28;20022;-75
2022/01/18 13:10:50;;;;;;;5.70;2.88;;;4.90;99.90;;;;;;5016958;28;20053;-75
2022/01/18 13:13:20;;;;;;;6.85;3.10;;;4.90;99.90;;;;;;4997619;28;20022;-75
2022/01/18 13:26:33;;;;;;;5.85;2.90;;;4.90;99.90;;;;;;5015418;28;20022;-75
2022/01/18 13:29:18;;;;;;;3.58;2.60;;;4.90;99.90;;;;;;5014728;28;20079;-76
2022/01/18 13:31:47;;;;;;;7.15;3.25;;;5.10;99.90;;;;;;5003902;28;20026;-76
2022/01/18 13:34:15;;;;;;;6.22;2.80;;;5.30;99.90;;;;;;5023698;28;20018;-76
2022/01/18 13:37:04;;;;;;;7.22;3.70;;;5.20;99.90;;;;;;5015052;28;20014;-75
2022/01/18 13:39:32;;;;;;;8.52;3.53;;;5.10;99.90;;;;;;5014842;28;20030;-75
2022/01/18 13:42:00;;;;;;;5.32;3.50;;;4.90;99.90;;;;;;5014234;28;20029;-75
2022/01/18 13:44:27;;;;;;;6.50;3.38;;;4.90;99.90;;;;;;5014576;28;20022;-76
2022/01/18 13:46:53;;;;;;;6.22;4.15;;;4.90;99.90;;;;;;4996777;28;20030;-76
2022/01/18 13:49:24;;;;;;;10.02;3.30;;;4.90;99.90;;;;;;4997570;28;20026;-75
2022/01/18 13:52:10;;;;;;;6.97;4.00;;;4.80;99.90;;;;;;5014140;28;20391;-75
2022/01/18 13:54:48;;;;;;;7.55;3.88;;;4.80;99.90;;;;;;5019483;28;20021;-75
2022/01/18 13:57:15;;;;;;;9.40;3.95;;;4.70;99.90;;;;;;5014556;28;20109;-74
2022/01/18 13:59:41;;;;;;;7.38;3.85;;;4.70;99.90;;;;;;5013929;28;20060;-76
2022/01/18 14:02:10;;;;;;;7.90;4.15;;;4.60;99.90;;;;;;4984507;28;20420;-75
2022/01/18 14:04:36;;;;;;;8.05;3.90;;;4.70;99.90;;;;;;5002921;28;20105;-75
2022/01/18 14:07:03;;;;;;;5.50;3.95;;;4.60;99.90;;;;;;5024469;28;20078;-75
2022/01/18 14:09:29;;;;;;;6.65;4.57;;;4.70;99.90;;;;;;4999095;28;20442;-74
2022/01/18 14:11:55;;;;;;;8.73;4.75;;;4.70;99.90;;;;;;5002985;28;20029;-73
2022/01/18 14:14:24;;;;;;;10.07;5.25;;;4.80;99.90;;;;;;5008459;28;20026;-73
2022/01/18 14:16:52;;;;;;;9.02;6.15;;;5.00;99.90;;;;;;5013558;28;20113;-75
2022/01/18 14:19:35;;;;;;;10.10;5.68;;;4.90;99.90;;;;;;5016567;28;20026;-74
2022/01/18 14:22:16;;;;;;;6.78;4.53;;;4.90;99.90;;;;;;4998633;28;20033;-74
2022/01/18 14:24:46;;;;;;;10.00;5.50;;;4.90;99.90;;;;;;5017995;28;20025;-75